Time;durP1;ratioP1;P1;durP2;ratioP2;P2;SDS_P1;SDS_P2;PMS_P1;PMS_P2;Temp;Humidity;BMP_temperature;BMP_pressure;BME280_temperature;BME280_humidity;BME280_pressure;Samples;Min_cycle;Max_cycle;Signal;HPM_P1;HPM_P2
2021/07/29 00:00:57;;;;;;;6.70;5.20;;;21.00;99.90;;;;;;6240155;23;20401;-53
2021/07/29 00:03:23;;;;;;;9.43;7.00;;;21.00;99.90;;;;;;6239581;23;20442;-54
2021/07/29 00:05:52;;;;;;;8.20;5.40;;;21.00;99.90;;;;;;6240507;23;20404;-54
2021/07/29 00:08:19;;;;;;;6.50;5.00;;;21.00;99.90;;;;;;6239486;23;20488;-54
2021/07/29 00:10:46;;;;;;;5.43;4.93;;;21.00;99.90;;;;;;6240163;23;20415;-54
2021/07/29 00:13:13;;;;;;;5.00;4.50;;;21.00;99.90;;;;;;6240262;23;20384;-48
2021/07/29 00:15:40;;;;;;;10.80;6.23;;;21.00;99.90;;;;;;6239901;23;20400;-54
2021/07/29 00:20:52;;;;;;;6.93;5.23;;;21.00;99.90;;;;;;6240044;23;20387;-51
2021/07/29 00:23:19;;;;;;;6.80;6.10;;;21.00;99.90;;;;;;6240575;23;20439;-55
2021/07/29 00:25:45;;;;;;;7.70;5.90;;;21.00;99.90;;;;;;6240021;23;20416;-55
2021/07/29 00:28:12;;;;;;;9.80;6.97;;;21.00;99.90;;;;;;6240170;23;20483;-54
2021/07/29 00:30:40;;;;;;;5.30;4.80;;;20.90;99.90;;;;;;6240061;23;20399;-53
2021/07/29 00:33:07;;;;;;;6.43;5.50;;;20.90;99.90;;;;;;6240599;23;20427;-52
2021/07/29 00:35:34;;;;;;;10.33;6.20;;;20.80;99.90;;;;;;6240231;23;20454;-53
2021/07/29 00:38:02;;;;;;;6.57;5.53;;;20.80;99.90;;;;;;6239799;23;20851;-51
2021/07/29 00:40:29;;;;;;;5.00;4.50;;;20.90;99.90;;;;;;6239782;23;20387;-55
2021/07/29 00:42:57;;;;;;;7.73;5.60;;;20.90;99.90;;;;;;6239863;23;20436;-55
2021/07/29 00:45:23;;;;;;;7.57;6.27;;;20.80;99.90;;;;;;6239875;23;20431;-53
2021/07/29 00:47:50;;;;;;;10.33;6.60;;;20.80;99.90;;;;;;6239831;23;20408;-54
2021/07/29 00:50:17;;;;;;;7.37;5.53;;;20.70;99.90;;;;;;6239648;23;20396;-54
2021/07/29 00:52:47;;;;;;;7.10;5.50;;;20.60;99.90;;;;;;6239968;23;20988;-55
2021/07/29 00:55:16;;;;;;;13.50;5.60;;;20.60;99.90;;;;;;6240223;23;20384;-55
2021/07/29 00:57:44;;;;;;;5.63;5.13;;;20.60;99.90;;;;;;6240000;23;20427;-52
2021/07/29 01:00:11;;;;;;;6.27;5.40;;;20.60;99.90;;;;;;6240343;23;20385;-55
2021/07/29 01:02:38;;;;;;;5.40;4.90;;;20.50;99.90;;;;;;6239788;23;20495;-54
2021/07/29 01:05:07;;;;;;;6.47;5.20;;;20.50;99.90;;;;;;6240159;23;20425;-55
2021/07/29 01:07:34;;;;;;;14.43;5.90;;;20.50;99.90;;;;;;6239758;23;20400;-54
2021/07/29 01:10:01;;;;;;;5.60;5.03;;;20.50;99.90;;;;;;6239832;23;20400;-54
2021/07/29 01:12:29;;;;;;;6.93;4.90;;;20.50;99.90;;;;;;6240092;23;20396;-54
2021/07/29 01:14:55;;;;;;;6.40;5.10;;;20.50;99.90;;;;;;6240246;23;20725;-53
2021/07/29 01:17:22;;;;;;;7.90;4.97;;;20.50;99.90;;;;;;6241246;23;20392;-55
2021/07/29 01:19:49;;;;;;;5.60;5.00;;;20.50;99.90;;;;;;6241217;23;20404;-53
2021/07/29 01:22:17;;;;;;;5.20;4.70;;;20.40;99.90;;;;;;6240957;23;20451;-54
2021/07/29 01:24:44;;;;;;;4.73;4.30;;;20.40;99.90;;;;;;6240611;23;20431;-53
2021/07/29 01:27:10;;;;;;;5.70;5.10;;;20.40;99.90;;;;;;6241769;23;20400;-54
2021/07/29 01:29:37;;;;;;;5.53;5.03;;;20.40;99.90;;;;;;6240927;23;20432;-50
2021/07/29 01:32:04;;;;;;;5.40;4.90;;;20.40;99.90;;;;;;6240712;23;20380;-55
2021/07/29 01:34:31;;;;;;;7.50;4.83;;;20.30;99.90;;;;;;6240890;23;20439;-49
2021/07/29 01:36:57;;;;;;;7.07;5.00;;;20.30;99.90;;;;;;6240917;23;20419;-52
2021/07/29 01:39:25;;;;;;;6.53;5.07;;;20.20;99.90;;;;;;6240892;23;20400;-53
2021/07/29 01:41:52;;;;;;;6.83;5.20;;;20.30;99.90;;;;;;6240223;23;20471;-54
2021/07/29 01:44:19;;;;;;;5.40;4.90;;;20.20;99.90;;;;;;6240663;23;20424;-53
2021/07/29 01:46:47;;;;;;;6.77;5.00;;;20.20;99.90;;;;;;6240835;23;20404;-49
2021/07/29 01:49:19;;;;;;;6.83;6.13;;;20.20;99.90;;;;;;6240456;23;20396;-53
2021/07/29 01:51:46;;;;;;;6.13;5.20;;;20.10;99.90;;;;;;6240643;23;20471;-53
2021/07/29 01:54:12;;;;;;;5.73;5.03;;;20.10;99.90;;;;;;6239333;23;20432;-53
2021/07/29 01:56:41;;;;;;;7.40;6.03;;;20.20;99.90;;;;;;6240170;23;20399;-50
2021/07/29 01:59:08;;;;;;;7.83;5.00;;;20.20;99.90;;;;;;6239974;23;20414;-52
2021/07/29 02:01:35;;;;;;;8.20;5.13;;;20.10;99.90;;;;;;6240073;23;20400;-48
2021/07/29 02:04:01;;;;;;;7.80;5.33;;;20.10;99.90;;;;;;6240348;23;20440;-55
2021/07/29 02:06:28;;;;;;;5.10;4.60;;;20.10;99.90;;;;;;6239613;23;20404;-54
2021/07/29 02:08:57;;;;;;;10.30;5.47;;;20.10;99.90;;;;;;6240256;23;20396;-49
2021/07/29 02:11:29;;;;;;;6.33;5.57;;;20.10;99.90;;;;;;6239867;23;20434;-51
2021/07/29 02:14:01;;;;;;;7.30;4.73;;;20.20;99.90;;;;;;6240282;23;20709;-51
2021/07/29 02:16:28;;;;;;;8.00;5.60;;;20.00;99.90;;;;;;6240073;23;20404;-48
2021/07/29 02:18:57;;;;;;;10.70;4.93;;;20.00;99.90;;;;;;6240529;23;20423;-52
2021/07/29 02:21:23;;;;;;;6.87;5.40;;;20.00;99.90;;;;;;6240397;23;20380;-51
2021/07/29 02:23:50;;;;;;;7.33;5.73;;;19.90;99.90;;;;;;6240309;23;20463;-48
2021/07/29 02:26:17;;;;;;;6.10;4.67;;;19.90;99.90;;;;;;6240543;23;20411;-47
2021/07/29 02:28:43;;;;;;;5.73;5.23;;;19.80;99.90;;;;;;6240472;23;20392;-51
2021/07/29 02:31:12;;;;;;;6.90;4.97;;;19.80;99.90;;;;;;6241533;23;20400;-50
2021/07/29 02:33:39;;;;;;;5.70;5.10;;;19.80;99.90;;;;;;6243444;23;20407;-48
2021/07/29 02:36:06;;;;;;;5.93;4.73;;;19.70;99.90;;;;;;6243126;23;20384;-49
2021/07/29 02:38:33;;;;;;;4.93;4.50;;;19.60;99.90;;;;;;6243291;23;20392;-52
2021/07/29 02:41:00;;;;;;;7.27;5.03;;;19.60;99.90;;;;;;6243054;23;20434;-48
2021/07/29 02:43:26;;;;;;;8.30;5.60;;;19.60;99.90;;;;;;6243073;23;20440;-48
2021/07/29 02:45:53;;;;;;;5.63;5.00;;;19.50;99.90;;;;;;6243021;23;20462;-48
2021/07/29 02:48:21;;;;;;;7.13;5.23;;;19.50;99.90;;;;;;6243239;23;20431;-47
2021/07/29 02:50:52;;;;;;;5.57;5.07;;;19.40;99.90;;;;;;6243022;23;20406;-49
2021/07/29 02:53:19;;;;;;;7.53;5.10;;;19.40;99.90;;;;;;6241810;23;20428;-52
2021/07/29 02:55:46;;;;;;;5.40;4.90;;;19.40;99.90;;;;;;6242163;23;20422;-52
2021/07/29 02:58:13;;;;;;;4.43;4.03;;;19.40;99.90;;;;;;6242106;23;20435;-54
2021/07/29 03:00:39;;;;;;;5.60;5.00;;;19.40;99.90;;;;;;6241703;23;20408;-55
2021/07/29 03:03:09;;;;;;;5.87;4.23;;;19.40;99.90;;;;;;6242107;23;20436;-53
2021/07/29 03:05:37;;;;;;;11.83;6.13;;;19.40;99.90;;;;;;6241566;23;20395;-53
2021/07/29 03:08:04;;;;;;;7.63;5.07;;;19.40;99.90;;;;;;6241523;23;20395;-52
2021/07/29 03:10:31;;;;;;;6.70;4.90;;;19.40;99.90;;;;;;6241174;23;20410;-50
2021/07/29 03:13:01;;;;;;;5.47;4.53;;;19.50;99.90;;;;;;6242174;23;20420;-54
2021/07/29 03:15:29;;;;;;;4.47;4.03;;;19.50;99.90;;;;;;6241325;23;20415;-51
2021/07/29 03:17:56;;;;;;;4.70;4.30;;;19.40;99.90;;;;;;6241986;23;20400;-51
2021/07/29 03:20:23;;;;;;;10.03;4.90;;;19.40;99.90;;;;;;6241227;23;20769;-53
2021/07/29 03:22:51;;;;;;;5.10;4.60;;;19.30;99.90;;;;;;6241426;23;20440;-50
2021/07/29 03:25:17;;;;;;;5.50;4.40;;;19.30;99.90;;;;;;6241229;23;20439;-56
2021/07/29 03:27:46;;;;;;;6.30;5.20;;;19.20;99.90;;;;;;6241850;23;20407;-55
2021/07/29 03:30:13;;;;;;;5.87;4.47;;;19.20;99.90;;;;;;6241982;23;20404;-52
2021/07/29 03:32:40;;;;;;;4.10;3.57;;;19.20;99.90;;;;;;6241722;23;20399;-54
2021/07/29 03:35:10;;;;;;;6.07;4.43;;;19.20;99.90;;;;;;6241476;23;20396;-52
2021/07/29 03:37:37;;;;;;;5.70;4.70;;;19.10;99.90;;;;;;6241700;23;20422;-54
2021/07/29 03:40:07;;;;;;;6.77;5.97;;;19.10;99.90;;;;;;6241840;23;20431;-56
2021/07/29 03:42:34;;;;;;;12.63;4.43;;;19.20;99.90;;;;;;6241188;23;20397;-54
2021/07/29 03:45:02;;;;;;;5.80;4.33;;;19.30;99.90;;;;;;6241865;23;20384;-54
2021/07/29 03:47:29;;;;;;;6.60;4.60;;;19.20;99.90;;;;;;6241662;23;20400;-52
2021/07/29 03:49:55;;;;;;;5.80;4.37;;;19.20;99.90;;;;;;6241912;23;20404;-53
2021/07/29 03:52:22;;;;;;;5.50;4.20;;;19.20;99.90;;;;;;6241710;23;20432;-51
2021/07/29 03:54:51;;;;;;;6.50;5.23;;;19.20;99.90;;;;;;6241860;23;20656;-52
2021/07/29 03:57:19;;;;;;;6.70;4.80;;;19.20;99.90;;;;;;6241627;23;20430;-51
2021/07/29 03:59:46;;;;;;;7.20;5.40;;;19.20;99.90;;;;;;6241989;23;20422;-51
2021/07/29 04:02:13;;;;;;;7.03;4.57;;;19.20;99.90;;;;;;6242479;23;20396;-52
2021/07/29 04:04:40;;;;;;;6.93;4.50;;;19.20;99.90;;;;;;6241664;23;20446;-50
2021/07/29 04:07:09;;;;;;;5.10;4.60;;;19.20;99.90;;;;;;6203479;23;20454;-46
2021/07/29 04:09:37;;;;;;;4.87;4.37;;;19.20;99.90;;;;;;6178292;23;20413;-46
2021/07/29 04:12:10;;;;;;;6.23;5.20;;;19.30;99.90;;;;;;6178226;23;20448;-48
2021/07/29 04:14:49;;;;;;;10.80;4.37;;;19.30;99.90;;;;;;6177988;23;20406;-48
2021/07/29 04:17:24;;;;;;;4.10;3.70;;;19.40;99.90;;;;;;6178339;23;20382;-52
2021/07/29 04:19:51;;;;;;;8.33;5.30;;;19.40;99.90;;;;;;6178383;23;20421;-49
2021/07/29 04:22:18;;;;;;;5.03;4.33;;;19.40;99.90;;;;;;6179233;23;20436;-49
2021/07/29 04:24:44;;;;;;;6.33;4.43;;;19.40;99.90;;;;;;6178477;23;20418;-53
2021/07/29 04:27:14;;;;;;;6.27;4.80;;;19.50;99.90;;;;;;6178012;23;20465;-50
2021/07/29 04:29:41;;;;;;;4.00;3.60;;;19.40;99.90;;;;;;6177555;23;20449;-50
2021/07/29 04:32:08;;;;;;;4.40;4.00;;;19.50;99.90;;;;;;6178457;23;20402;-53
2021/07/29 04:34:35;;;;;;;4.40;4.00;;;19.50;99.90;;;;;;6178648;23;20480;-53
2021/07/29 04:37:01;;;;;;;5.23;4.47;;;19.50;99.90;;;;;;6178775;23;20422;-50
2021/07/29 04:39:30;;;;;;;4.70;3.70;;;19.50;99.90;;;;;;6178815;23;20750;-49
2021/07/29 04:41:56;;;;;;;5.63;3.23;;;19.50;99.90;;;;;;6178754;23;20477;-52
2021/07/29 04:44:23;;;;;;;4.20;3.80;;;19.50;99.90;;;;;;6177979;23;20710;-50
2021/07/29 04:46:51;;;;;;;5.37;3.80;;;19.50;99.90;;;;;;6178201;23;20822;-51
2021/07/29 04:49:20;;;;;;;4.93;4.20;;;19.60;99.90;;;;;;6177132;23;20398;-52
2021/07/29 04:51:47;;;;;;;4.27;3.87;;;19.60;99.90;;;;;;6178360;23;20417;-52
2021/07/29 04:54:14;;;;;;;4.50;4.10;;;19.60;99.90;;;;;;6178179;23;20398;-48
2021/07/29 04:56:41;;;;;;;4.10;3.70;;;19.60;99.90;;;;;;6177665;23;20412;-48
2021/07/29 04:59:08;;;;;;;6.00;3.60;;;19.60;99.90;;;;;;6178725;23;20429;-53
2021/07/29 05:01:37;;;;;;;5.13;3.93;;;19.60;99.90;;;;;;6179098;23;20405;-52
2021/07/29 05:04:08;;;;;;;4.47;3.43;;;19.60;99.90;;;;;;6178210;23;20434;-50
2021/07/29 05:06:41;;;;;;;4.40;3.20;;;19.60;99.90;;;;;;6177796;23;20444;-52
2021/07/29 05:09:09;;;;;;;4.37;3.77;;;19.60;99.90;;;;;;6178290;23;20390;-50
2021/07/29 05:11:35;;;;;;;6.20;3.80;;;19.50;99.90;;;;;;6177814;23;20401;-54
2021/07/29 05:14:02;;;;;;;5.37;4.00;;;19.60;99.90;;;;;;6177794;23;20402;-50
2021/07/29 05:16:29;;;;;;;3.63;3.20;;;19.50;99.90;;;;;;6177560;23;20840;-51
2021/07/29 05:18:59;;;;;;;4.93;4.43;;;19.50;99.90;;;;;;6178269;23;20406;-53
2021/07/29 05:21:29;;;;;;;5.80;3.77;;;19.50;99.90;;;;;;6178132;23;20776;-52
2021/07/29 05:23:55;;;;;;;6.47;3.63;;;19.60;99.90;;;;;;6160544;23;20714;-47
2021/07/29 05:26:22;;;;;;;4.40;4.00;;;19.60;99.90;;;;;;6158601;23;20480;-47
2021/07/29 05:28:49;;;;;;;5.47;4.27;;;19.70;99.90;;;;;;6158676;23;20416;-51
2021/07/29 05:31:16;;;;;;;4.10;3.60;;;19.70;99.90;;;;;;6158830;23;20441;-52
2021/07/29 05:33:42;;;;;;;4.47;3.70;;;19.80;99.90;;;;;;6158655;23;20468;-53
2021/07/29 05:36:09;;;;;;;4.80;3.97;;;19.90;99.90;;;;;;6158885;23;20818;-49
2021/07/29 05:38:37;;;;;;;7.27;4.27;;;20.00;99.90;;;;;;6158263;23;20421;-49
2021/07/29 05:41:04;;;;;;;5.30;4.80;;;20.10;99.90;;;;;;6158545;23;20434;-51
2021/07/29 05:43:32;;;;;;;5.00;3.90;;;20.10;99.90;;;;;;6160941;23;20437;-51
2021/07/29 05:45:58;;;;;;;11.07;8.73;;;20.20;99.90;;;;;;6158292;23;20469;-50
2021/07/29 05:48:25;;;;;;;38.97;24.43;;;20.10;99.90;;;;;;6158543;23;20461;-48
2021/07/29 05:50:56;;;;;;;5.10;3.90;;;20.20;99.90;;;;;;6157995;23;20402;-50
2021/07/29 05:53:23;;;;;;;5.93;4.03;;;20.20;99.90;;;;;;6158088;23;20896;-51
2021/07/29 05:55:52;;;;;;;4.40;3.40;;;20.30;99.90;;;;;;6159295;23;20433;-48
2021/07/29 05:58:19;;;;;;;3.30;3.00;;;20.30;99.90;;;;;;6158591;23;20406;-50
2021/07/29 06:00:45;;;;;;;5.20;4.63;;;20.40;99.90;;;;;;6158346;23;20414;-53
2021/07/29 06:03:12;;;;;;;4.33;3.90;;;20.40;99.90;;;;;;6159091;23;20468;-50
2021/07/29 06:05:39;;;;;;;5.50;3.57;;;20.50;99.90;;;;;;6159105;23;20476;-45
2021/07/29 06:08:06;;;;;;;9.10;3.60;;;20.70;99.90;;;;;;6160323;23;20469;-51
2021/07/29 06:10:33;;;;;;;5.20;4.50;;;20.70;99.90;;;;;;6161226;23;20409;-46
2021/07/29 06:13:01;;;;;;;5.00;3.47;;;20.60;99.90;;;;;;6161170;23;20405;-49
2021/07/29 06:15:27;;;;;;;5.00;4.27;;;20.70;99.90;;;;;;6160527;23;20397;-53
2021/07/29 06:17:57;;;;;;;7.40;4.20;;;20.80;99.90;;;;;;6161378;23;20386;-47
2021/07/29 06:20:24;;;;;;;6.27;3.43;;;20.80;99.90;;;;;;6158772;23;20425;-49
2021/07/29 06:22:50;;;;;;;4.00;3.40;;;20.90;99.90;;;;;;6158647;23;20406;-50
2021/07/29 06:25:18;;;;;;;4.80;3.87;;;20.90;99.90;;;;;;6158663;23;20519;-54
2021/07/29 06:27:46;;;;;;;4.77;3.67;;;20.90;99.90;;;;;;6159314;23;20405;-53
2021/07/29 06:30:16;;;;;;;6.03;3.80;;;20.90;99.90;;;;;;6159639;23;20409;-52
2021/07/29 06:32:43;;;;;;;7.90;4.63;;;20.80;99.90;;;;;;6159706;23;20406;-53
2021/07/29 06:35:10;;;;;;;7.10;3.80;;;20.80;99.90;;;;;;6159201;23;20425;-51
2021/07/29 06:37:37;;;;;;;8.97;4.70;;;20.90;99.90;;;;;;6160173;23;20406;-53
2021/07/29 06:40:05;;;;;;;3.77;3.33;;;20.90;99.90;;;;;;6160338;23;20493;-48
2021/07/29 06:42:32;;;;;;;3.40;2.80;;;20.90;99.90;;;;;;6159755;23;20491;-52
2021/07/29 06:44:59;;;;;;;4.50;3.80;;;21.00;99.90;;;;;;6160118;23;20523;-52
2021/07/29 06:47:27;;;;;;;7.50;4.10;;;21.00;99.90;;;;;;6160113;23;20405;-47
2021/07/29 06:49:54;;;;;;;5.93;4.20;;;21.10;99.90;;;;;;6160394;23;20536;-53
2021/07/29 06:52:20;;;;;;;5.10;3.30;;;21.10;99.90;;;;;;6159806;23;20473;-53
2021/07/29 06:54:47;;;;;;;3.93;2.90;;;21.10;99.90;;;;;;6159488;23;20401;-54
2021/07/29 06:57:14;;;;;;;4.20;3.50;;;21.20;99.90;;;;;;6159772;23;20421;-52
2021/07/29 06:59:41;;;;;;;5.50;3.60;;;21.30;99.90;;;;;;6159607;23;20402;-46
2021/07/29 07:02:07;;;;;;;5.23;3.53;;;21.40;99.90;;;;;;6159629;23;20410;-49
2021/07/29 07:04:35;;;;;;;5.60;3.57;;;21.50;99.90;;;;;;6159848;23;20787;-50
2021/07/29 07:07:02;;;;;;;7.23;3.40;;;21.50;99.90;;;;;;6159615;23;20711;-50
2021/07/29 07:09:30;;;;;;;4.70;3.20;;;21.60;99.90;;;;;;6159511;23;20436;-48
2021/07/29 07:11:57;;;;;;;4.33;3.93;;;21.60;99.90;;;;;;6159936;23;20852;-52
2021/07/29 07:14:24;;;;;;;4.50;3.07;;;21.70;99.90;;;;;;6159883;23;20711;-49
2021/07/29 07:16:51;;;;;;;3.80;3.40;;;21.80;99.90;;;;;;6159673;23;20496;-47
2021/07/29 07:19:17;;;;;;;5.00;3.17;;;21.80;99.90;;;;;;6159944;23;20412;-47
2021/07/29 07:21:45;;;;;;;4.47;3.37;;;21.90;99.90;;;;;;6159407;23;20940;-52
2021/07/29 07:24:12;;;;;;;6.73;3.30;;;22.00;99.90;;;;;;6159783;23;20445;-50
2021/07/29 07:26:39;;;;;;;4.23;3.27;;;22.70;99.90;;;;;;6159437;23;20468;-47
2021/07/29 07:29:06;;;;;;;12.43;3.93;;;24.00;99.90;;;;;;6159167;23;20406;-51
2021/07/29 07:31:32;;;;;;;6.43;3.20;;;25.50;99.90;;;;;;6158064;23;20912;-55
2021/07/29 07:34:00;;;;;;;4.13;2.70;;;26.80;99.90;;;;;;6158369;23;20405;-49
2021/07/29 07:36:27;;;;;;;4.83;3.10;;;27.80;97.70;;;;;;6158416;23;20428;-53
2021/07/29 07:38:55;;;;;;;3.10;2.80;;;28.60;93.00;;;;;;6157855;23;20728;-51
2021/07/29 07:41:22;;;;;;;8.53;2.90;;;28.50;90.60;;;;;;6157964;23;20424;-54
2021/07/29 07:43:49;;;;;;;6.53;3.23;;;27.80;90.00;;;;;;6158135;23;20472;-50
2021/07/29 07:46:15;;;;;;;3.43;3.13;;;27.20;90.00;;;;;;6158242;23;20406;-49
2021/07/29 07:48:42;;;;;;;16.03;4.17;;;27.10;90.70;;;;;;6157807;23;20401;-49
2021/07/29 07:51:09;;;;;;;4.03;2.83;;;27.60;85.70;;;;;;6158254;23;20881;-54
2021/07/29 07:53:35;;;;;;;3.13;2.80;;;28.40;82.30;;;;;;6157139;23;20492;-50
2021/07/29 07:56:06;;;;;;;4.50;3.07;;;29.20;77.80;;;;;;6157544;23;20923;-51
2021/07/29 07:58:32;;;;;;;3.03;2.60;;;29.80;74.80;;;;;;6157779;23;20753;-51
2021/07/29 08:00:59;;;;;;;4.67;3.10;;;30.80;71.00;;;;;;6157837;23;20716;-53
2021/07/29 08:03:28;;;;;;;4.63;2.97;;;31.30;67.20;;;;;;6157775;23;20422;-54
2021/07/29 08:05:54;;;;;;;3.50;2.80;;;31.10;66.50;;;;;;6157521;23;20441;-54
2021/07/29 08:08:21;;;;;;;4.67;3.47;;;31.30;65.20;;;;;;6158082;23;20398;-53
2021/07/29 08:10:51;;;;;;;3.97;2.90;;;31.40;64.00;;;;;;6157285;23;20785;-50
2021/07/29 08:13:19;;;;;;;3.20;2.90;;;30.90;63.20;;;;;;6157835;23;20416;-54
2021/07/29 08:15:46;;;;;;;6.73;6.03;;;30.80;62.20;;;;;;6157721;23;20398;-54
2021/07/29 08:18:12;;;;;;;9.63;8.20;;;30.20;63.40;;;;;;6157663;23;20750;-49
2021/07/29 08:20:41;;;;;;;5.73;4.07;;;30.40;63.30;;;;;;6157764;23;20406;-52
2021/07/29 08:23:08;;;;;;;5.23;3.80;;;30.50;61.90;;;;;;6157713;23;20489;-49
2021/07/29 08:25:36;;;;;;;3.97;3.40;;;29.60;63.10;;;;;;6157510;23;20789;-51
2021/07/29 08:28:03;;;;;;;3.20;2.63;;;28.50;65.10;;;;;;6156975;23;20433;-50
2021/07/29 08:30:33;;;;;;;3.00;2.70;;;27.60;68.40;;;;;;6157458;23;20414;-51
2021/07/29 08:33:07;;;;;;;3.07;2.77;;;27.00;72.70;;;;;;6157814;23;20406;-49
2021/07/29 08:35:35;;;;;;;11.30;3.00;;;26.70;73.60;;;;;;6157499;23;20410;-50
2021/07/29 08:38:02;;;;;;;5.03;4.53;;;26.30;74.50;;;;;;6157580;23;20410;-51
2021/07/29 08:40:29;;;;;;;7.00;3.03;;;25.80;76.20;;;;;;6158176;23;20406;-50
2021/07/29 08:42:57;;;;;;;7.93;3.40;;;25.10;77.70;;;;;;6158174;23;20484;-49
2021/07/29 08:45:24;;;;;;;4.47;3.07;;;24.70;80.20;;;;;;6157728;23;20441;-54
2021/07/29 08:47:55;;;;;;;3.70;3.27;;;24.20;82.50;;;;;;6157821;23;20460;-55
2021/07/29 08:50:22;;;;;;;3.13;2.83;;;24.00;85.20;;;;;;6158223;23;20394;-55
2021/07/29 08:52:50;;;;;;;4.00;3.33;;;24.30;86.40;;;;;;6158091;23;20421;-50
2021/07/29 08:55:17;;;;;;;5.87;3.20;;;24.50;86.20;;;;;;6157944;23;20433;-54
2021/07/29 08:57:44;;;;;;;7.10;2.90;;;24.30;87.40;;;;;;6157299;23;20473;-56
2021/07/29 09:00:13;;;;;;;3.80;3.13;;;24.20;89.10;;;;;;6157815;23;20417;-54
2021/07/29 09:02:40;;;;;;;6.00;3.53;;;24.10;90.20;;;;;;6158081;23;20464;-50
2021/07/29 09:05:15;;;;;;;4.83;3.90;;;24.10;90.70;;;;;;6157887;23;20444;-55
2021/07/29 09:07:42;;;;;;;5.20;3.50;;;23.90;91.20;;;;;;6157952;23;20437;-51
2021/07/29 09:10:27;;;;;;;4.97;3.23;;;23.80;91.50;;;;;;6158261;23;20406;-52
2021/07/29 09:13:11;;;;;;;4.57;3.80;;;24.10;92.30;;;;;;6157718;23;20397;-54
2021/07/29 09:15:39;;;;;;;6.20;3.47;;;25.50;90.90;;;;;;6157354;23;20401;-53
2021/07/29 09:18:06;;;;;;;4.07;2.70;;;27.40;84.10;;;;;;6157724;23;20749;-53
2021/07/29 09:20:34;;;;;;;4.80;3.30;;;29.00;77.90;;;;;;6157041;23;20409;-51
2021/07/29 09:23:18;;;;;;;3.60;2.87;;;30.50;72.60;;;;;;6157061;23;20414;-52
2021/07/29 09:25:46;;;;;;;3.23;2.93;;;31.40;66.60;;;;;;6156599;23;20489;-54
2021/07/29 09:28:32;;;;;;;4.77;3.50;;;31.00;65.70;;;;;;6156937;23;20468;-48
2021/07/29 09:30:58;;;;;;;3.53;3.00;;;30.50;64.70;;;;;;6157112;23;20481;-48
2021/07/29 09:33:25;;;;;;;4.93;3.53;;;30.00;66.60;;;;;;6156968;23;20437;-47
2021/07/29 09:35:55;;;;;;;7.03;3.50;;;30.20;66.00;;;;;;6157033;23;20459;-54
2021/07/29 09:38:24;;;;;;;6.20;3.50;;;30.20;64.50;;;;;;6157090;23;20740;-50
2021/07/29 09:40:54;;;;;;;6.23;4.90;;;29.50;64.70;;;;;;6158584;23;20849;-53
2021/07/29 09:43:22;;;;;;;10.20;8.60;;;29.30;65.90;;;;;;6159009;23;20418;-54
2021/07/29 09:45:50;;;;;;;8.10;3.33;;;29.70;65.40;;;;;;6159531;23;20768;-51
2021/07/29 09:48:18;;;;;;;4.50;3.70;;;29.90;64.80;;;;;;6159368;23;20402;-54
2021/07/29 09:50:46;;;;;;;6.43;3.37;;;30.40;63.80;;;;;;6159215;23;20422;-54
2021/07/29 09:53:14;;;;;;;5.50;3.57;;;31.30;62.30;;;;;;6158707;23;20410;-51
2021/07/29 09:55:41;;;;;;;3.90;3.50;;;31.70;60.10;;;;;;6158559;23;20405;-52
2021/07/29 09:58:09;;;;;;;5.80;3.30;;;31.80;59.60;;;;;;6159041;23;20678;-53
2021/07/29 10:00:39;;;;;;;4.30;3.17;;;32.10;58.90;;;;;;6158999;23;20425;-52
2021/07/29 10:03:08;;;;;;;3.43;3.13;;;32.30;57.30;;;;;;6158594;23;20433;-53
2021/07/29 10:05:45;;;;;;;3.93;3.53;;;31.50;57.10;;;;;;6158286;23;20441;-48
2021/07/29 10:08:20;;;;;;;4.07;2.90;;;30.50;58.80;;;;;;6158573;23;20797;-53
2021/07/29 10:10:48;;;;;;;4.13;3.33;;;29.40;61.50;;;;;;6158960;23;20389;-53
2021/07/29 10:13:15;;;;;;;5.23;3.50;;;28.40;63.50;;;;;;6158882;23;20417;-53
2021/07/29 10:15:43;;;;;;;5.50;4.27;;;27.60;64.20;;;;;;6158805;23;20869;-50
2021/07/29 10:18:11;;;;;;;4.60;3.57;;;26.90;65.90;;;;;;6158850;23;20493;-51
2021/07/29 10:20:39;;;;;;;9.50;3.83;;;26.30;68.00;;;;;;6158878;23;20405;-53
2021/07/29 10:23:29;;;;;;;6.00;3.70;;;25.80;71.30;;;;;;6159054;23;20413;-52
2021/07/29 10:26:10;;;;;;;6.40;3.80;;;25.30;74.10;;;;;;6159022;23;20433;-51
2021/07/29 10:28:41;;;;;;;3.33;3.03;;;24.80;76.60;;;;;;6158649;23;20932;-52
2021/07/29 10:31:16;;;;;;;6.47;3.70;;;24.50;78.40;;;;;;6159098;23;20397;-51
2021/07/29 10:33:45;;;;;;;4.33;3.60;;;24.20;80.00;;;;;;6159131;23;20397;-52
2021/07/29 10:36:44;;;;;;;4.33;3.60;;;24.00;81.30;;;;;;6159353;23;20476;-53
2021/07/29 10:39:13;;;;;;;4.17;3.27;;;23.80;81.70;;;;;;6159759;23;20440;-53
2021/07/29 10:42:01;;;;;;;4.73;3.47;;;23.70;82.70;;;;;;6159603;23;20425;-51
2021/07/29 10:44:47;;;;;;;5.70;3.40;;;23.70;83.10;;;;;;6159481;23;20418;-50
2021/07/29 10:47:18;;;;;;;3.17;2.93;;;23.90;84.70;;;;;;6159101;23;20492;-49
2021/07/29 10:50:15;;;;;;;2.80;2.60;;;24.00;84.40;;;;;;6159507;23;20679;-49
2021/07/29 10:52:49;;;;;;;3.70;2.87;;;23.90;84.10;;;;;;6159395;23;20464;-53
2021/07/29 10:55:19;;;;;;;3.67;2.53;;;23.80;84.30;;;;;;6159664;23;20472;-53
2021/07/29 10:57:59;;;;;;;5.23;2.73;;;24.00;84.60;;;;;;6159456;23;20429;-53
2021/07/29 11:00:26;;;;;;;4.27;2.90;;;24.50;84.30;;;;;;6159036;23;20410;-52
2021/07/29 11:02:55;;;;;;;3.87;3.13;;;24.70;82.50;;;;;;6159678;23;20409;-52
2021/07/29 11:05:26;;;;;;;3.07;2.80;;;24.90;81.90;;;;;;6158950;23;20437;-54
2021/07/29 11:07:53;;;;;;;3.87;3.47;;;25.00;82.00;;;;;;6158793;23;20932;-54
2021/07/29 11:10:24;;;;;;;4.57;3.30;;;25.10;81.60;;;;;;6159232;23;20413;-55
2021/07/29 11:12:51;;;;;;;7.27;3.97;;;25.50;79.70;;;;;;6159132;23;20420;-52
2021/07/29 11:15:18;;;;;;;4.23;3.70;;;25.60;77.70;;;;;;6158986;23;20738;-50
2021/07/29 11:17:45;;;;;;;5.03;3.10;;;25.60;78.10;;;;;;6158719;23;20413;-54
2021/07/29 11:20:12;;;;;;;3.70;3.20;;;25.70;74.60;;;;;;6158812;23;20410;-54
2021/07/29 11:22:48;;;;;;;5.70;2.70;;;25.70;70.60;;;;;;6159022;23;20421;-54
2021/07/29 11:25:16;;;;;;;3.87;2.80;;;25.50;67.50;;;;;;6158670;23;20507;-53
2021/07/29 11:27:44;;;;;;;4.23;3.03;;;25.60;67.60;;;;;;6158435;23;20868;-49
2021/07/29 11:30:12;;;;;;;3.27;2.97;;;25.80;67.00;;;;;;6159213;23;20405;-53
2021/07/29 11:32:40;;;;;;;18.03;4.10;;;25.90;67.60;;;;;;6158432;23;20688;-53
2021/07/29 11:35:09;;;;;;;6.10;2.90;;;25.90;66.70;;;;;;6158080;23;20401;-51
2021/07/29 11:37:41;;;;;;;4.13;3.10;;;25.90;66.00;;;;;;6158288;23;20896;-54
2021/07/29 11:40:16;;;;;;;4.50;2.83;;;26.20;65.60;;;;;;6158543;23;20386;-52
2021/07/29 11:42:44;;;;;;;3.63;2.03;;;26.40;65.30;;;;;;6158264;23;20397;-55
2021/07/29 11:45:22;;;;;;;2.63;2.43;;;26.60;62.90;;;;;;6158253;23;20419;-53
2021/07/29 11:47:49;;;;;;;6.40;2.80;;;26.60;62.10;;;;;;6158395;23;20421;-53
2021/07/29 11:50:16;;;;;;;3.33;2.43;;;26.50;61.20;;;;;;6158713;23;20425;-52
2021/07/29 11:52:53;;;;;;;3.40;2.90;;;26.50;60.80;;;;;;6158259;23;20464;-52
2021/07/29 11:55:21;;;;;;;6.10;2.10;;;26.30;60.90;;;;;;6158097;23;20688;-49
2021/07/29 11:57:50;;;;;;;4.50;3.00;;;26.40;62.70;;;;;;6158318;23;20426;-54
2021/07/29 12:00:28;;;;;;;7.13;2.90;;;26.30;61.80;;;;;;6158440;23;20402;-54
2021/07/29 12:02:55;;;;;;;2.50;2.20;;;26.30;62.60;;;;;;6158015;23;20401;-54
2021/07/29 12:05:23;;;;;;;4.00;2.27;;;26.40;63.50;;;;;;6158354;23;20672;-54
2021/07/29 12:07:52;;;;;;;13.30;3.90;;;26.40;63.40;;;;;;6158339;23;20771;-54
2021/07/29 12:10:19;;;;;;;2.73;2.47;;;26.30;63.70;;;;;;6157730;23;20441;-55
2021/07/29 12:12:46;;;;;;;3.07;2.30;;;26.20;63.00;;;;;;6157662;23;20409;-56
2021/07/29 12:15:16;;;;;;;2.93;2.30;;;26.20;63.50;;;;;;6157634;23;20409;-55
2021/07/29 12:17:42;;;;;;;7.60;2.70;;;26.20;63.40;;;;;;6157550;23;20421;-55
2021/07/29 12:20:12;;;;;;;4.10;2.83;;;26.40;64.00;;;;;;6157589;23;20472;-55
2021/07/29 12:22:41;;;;;;;4.63;2.27;;;26.60;63.80;;;;;;6157573;23;20492;-52
2021/07/29 12:25:11;;;;;;;3.93;2.80;;;26.50;61.70;;;;;;6157124;23;20896;-55
2021/07/29 12:27:44;;;;;;;3.10;2.00;;;26.20;61.90;;;;;;6157490;23;20398;-54
2021/07/29 12:30:31;;;;;;;3.40;2.83;;;25.60;60.20;;;;;;6157394;23;20903;-56
2021/07/29 12:33:10;;;;;;;4.50;3.00;;;25.30;61.10;;;;;;6157802;23;20452;-55
2021/07/29 12:35:37;;;;;;;3.40;2.27;;;25.00;62.20;;;;;;6157623;23;20436;-54
2021/07/29 12:38:04;;;;;;;3.47;2.33;;;24.90;63.20;;;;;;6157129;23;20857;-53
2021/07/29 12:40:32;;;;;;;3.90;2.20;;;24.90;62.10;;;;;;6157258;23;20888;-57
2021/07/29 12:43:21;;;;;;;2.53;2.10;;;24.90;62.40;;;;;;6157457;23;20409;-57
2021/07/29 12:45:53;;;;;;;2.90;2.17;;;24.90;62.80;;;;;;6157403;23;20689;-55
2021/07/29 12:48:20;;;;;;;3.50;2.73;;;24.70;63.50;;;;;;6157497;23;20402;-56
2021/07/29 12:50:46;;;;;;;5.70;3.23;;;24.70;64.40;;;;;;6157574;23;20476;-55
2021/07/29 12:53:15;;;;;;;3.10;2.30;;;24.70;64.90;;;;;;6157108;23;20474;-54
2021/07/29 12:55:43;;;;;;;6.30;3.67;;;24.70;65.60;;;;;;6157499;23;20401;-53